Time;durP1;ratioP1;P1;durP2;ratioP2;P2;SDS_P1;SDS_P2;PMS_P1;PMS_P2;Temp;Humidity;BMP_temperature;BMP_pressure;BME280_temperature;BME280_humidity;BME280_pressure;Samples;Min_cycle;Max_cycle;Signal;HPM_P1;HPM_P2
2022/08/20 00:01:00;;;;;;;23.20;7.25;;;29.70;99.90;;;;;;5065588;28;20041;-72
2022/08/20 00:03:33;;;;;;;20.23;7.32;;;29.70;99.90;;;;;;5048855;28;20041;-72
2022/08/20 00:06:14;;;;;;;17.98;7.40;;;29.60;99.70;;;;;;5050122;28;20049;-72
2022/08/20 00:08:42;;;;;;;11.07;5.75;;;29.60;99.70;;;;;;5032349;28;20056;-71
2022/08/20 00:11:14;;;;;;;13.00;6.55;;;29.60;99.90;;;;;;5048432;28;20052;-71
2022/08/20 00:13:49;;;;;;;18.17;6.30;;;29.60;99.70;;;;;;5050197;28;20048;-71
2022/08/20 00:16:21;;;;;;;11.38;6.72;;;29.50;99.80;;;;;;5032488;28;20094;-71
2022/08/20 00:18:49;;;;;;;16.95;7.47;;;29.50;99.80;;;;;;5052194;28;20040;-71
2022/08/20 00:21:20;;;;;;;18.75;5.63;;;29.50;99.80;;;;;;5053842;28;20054;-71
2022/08/20 00:23:50;;;;;;;16.15;6.55;;;29.50;99.60;;;;;;5055876;28;20040;-71
2022/08/20 00:26:23;;;;;;;19.35;7.70;;;29.40;99.70;;;;;;5072585;28;20554;-71
2022/08/20 00:28:51;;;;;;;14.00;6.35;;;29.40;99.70;;;;;;5072426;28;20194;-71
2022/08/20 00:31:22;;;;;;;12.98;5.88;;;29.40;99.70;;;;;;5072474;28;20044;-71
2022/08/20 00:33:51;;;;;;;14.20;6.15;;;29.30;99.60;;;;;;5055805;28;20137;-71
2022/08/20 00:36:20;;;;;;;13.55;7.03;;;29.20;99.30;;;;;;5055782;28;20040;-72
2022/08/20 00:38:48;;;;;;;16.48;5.47;;;29.20;99.20;;;;;;5072685;28;20062;-71
2022/08/20 00:41:20;;;;;;;17.25;6.30;;;29.20;99.10;;;;;;5071813;28;20086;-71
2022/08/20 00:44:08;;;;;;;13.68;5.35;;;29.20;99.00;;;;;;5072134;28;20486;-71
2022/08/20 00:46:37;;;;;;;16.50;6.13;;;29.10;98.90;;;;;;5073315;28;20101;-71
2022/08/20 00:49:07;;;;;;;17.48;5.82;;;29.10;98.80;;;;;;5073227;28;20044;-71
2022/08/20 00:51:37;;;;;;;15.98;6.05;;;29.10;98.80;;;;;;5073409;28;20036;-72
2022/08/20 00:54:22;;;;;;;12.88;6.20;;;29.10;98.80;;;;;;5073529;28;20052;-71
2022/08/20 00:57:02;;;;;;;12.35;5.25;;;29.10;98.80;;;;;;5071931;28;20044;-71
2022/08/20 00:59:33;;;;;;;13.13;6.43;;;29.00;98.80;;;;;;5073040;28;20551;-72
2022/08/20 01:02:03;;;;;;;16.55;5.97;;;29.00;98.70;;;;;;5073290;28;20056;-72
2022/08/20 01:04:33;;;;;;;15.75;6.20;;;28.90;98.60;;;;;;5071722;28;20577;-71
2022/08/20 01:07:04;;;;;;;14.32;5.53;;;28.90;98.60;;;;;;5055316;28;20048;-72
2022/08/20 01:09:34;;;;;;;13.85;5.50;;;28.80;98.60;;;;;;5073089;28;20041;-72
2022/08/20 01:12:02;;;;;;;17.77;5.22;;;28.80;98.60;;;;;;5054206;28;20559;-72
2022/08/20 01:17:05;;;;;;;11.10;5.70;;;28.80;98.60;;;;;;5072862;28;20048;-72
2022/08/20 01:19:38;;;;;;;12.95;5.70;;;28.80;98.60;;;;;;5105029;28;20044;-72
2022/08/20 01:23:25;;;;;;;7.43;5.88;;;28.80;98.60;;;;;;5071608;28;20098;-74
2022/08/20 01:25:03;;;;;;;14.38;5.72;;;28.70;98.60;;;;;;5071517;28;20047;-74
2022/08/20 01:27:31;;;;;;;13.73;4.75;;;28.70;98.60;;;;;;5071588;28;20651;-74
2022/08/20 01:30:01;;;;;;;14.32;5.35;;;28.70;98.60;;;;;;5072059;28;20072;-72
2022/08/20 01:32:30;;;;;;;13.35;5.10;;;28.70;98.60;;;;;;5071494;28;20044;-72
2022/08/20 01:34:58;;;;;;;12.80;5.63;;;28.70;98.60;;;;;;5071672;28;20522;-72
2022/08/20 01:37:25;;;;;;;10.05;5.28;;;28.70;98.60;;;;;;5072305;28;20139;-71
2022/08/20 01:39:53;;;;;;;11.55;5.45;;;28.60;98.50;;;;;;5087740;28;20507;-71
2022/08/20 01:42:33;;;;;;;13.82;5.82;;;28.60;98.50;;;;;;5071186;28;20054;-72
2022/08/20 01:45:01;;;;;;;8.40;4.60;;;28.60;98.20;;;;;;5071066;28;20040;-71
2022/08/20 01:47:31;;;;;;;9.27;4.70;;;28.60;97.60;;;;;;5070807;28;20071;-73
2022/08/20 01:50:21;;;;;;;12.00;4.45;;;28.60;96.60;;;;;;5072034;28;20453;-72
2022/08/20 01:53:25;;;;;;;6.88;3.55;;;28.70;95.90;;;;;;5087403;28;20045;-72
2022/08/20 01:55:53;;;;;;;10.60;3.30;;;28.70;95.20;;;;;;5073778;27;20075;-72
2022/08/20 01:58:21;;;;;;;8.18;4.38;;;28.70;94.80;;;;;;5070882;28;20376;-72
2022/08/20 02:00:49;;;;;;;7.25;3.50;;;28.70;94.70;;;;;;5070483;28;20049;-72
2022/08/20 02:03:17;;;;;;;11.18;3.63;;;28.80;94.80;;;;;;5071620;28;20048;-72
2022/08/20 02:05:44;;;;;;;10.55;3.30;;;28.70;94.70;;;;;;5070800;28;20427;-72
2022/08/20 02:08:12;;;;;;;8.32;4.25;;;28.80;94.70;;;;;;5067831;28;20609;-72
2022/08/20 02:10:39;;;;;;;7.43;3.58;;;28.80;94.60;;;;;;5070367;28;20052;-72
2022/08/20 02:13:08;;;;;;;8.35;4.65;;;28.80;94.50;;;;;;5070309;28;20076;-72
2022/08/20 02:15:36;;;;;;;10.50;4.68;;;28.80;94.30;;;;;;5071654;28;20809;-72
2022/08/20 02:18:06;;;;;;;7.57;3.53;;;28.80;94.10;;;;;;5070332;28;20047;-72
2022/08/20 02:20:35;;;;;;;9.15;3.13;;;28.80;94.30;;;;;;5087125;28;20127;-72
2022/08/20 02:23:04;;;;;;;7.45;3.58;;;28.70;94.10;;;;;;5071343;28;20067;-72
2022/08/20 02:25:34;;;;;;;8.18;3.80;;;28.60;94.00;;;;;;5071046;28;20083;-72
2022/08/20 02:28:06;;;;;;;6.70;3.58;;;28.70;94.00;;;;;;5069875;28;20041;-73
2022/08/20 02:30:37;;;;;;;9.38;2.95;;;28.60;94.10;;;;;;5086808;28;20040;-72
2022/08/20 02:33:09;;;;;;;6.82;3.20;;;28.60;93.80;;;;;;5070262;28;20051;-72
2022/08/20 02:35:38;;;;;;;7.18;3.53;;;28.50;93.90;;;;;;5053598;28;20102;-72
2022/08/20 02:38:06;;;;;;;6.93;2.97;;;28.50;93.70;;;;;;5071158;28;20509;-72
2022/08/20 02:40:34;;;;;;;6.35;3.17;;;28.50;93.60;;;;;;5070225;28;20170;-72
2022/08/20 02:43:03;;;;;;;4.47;2.55;;;28.50;93.50;;;;;;5103238;28;20044;-72
2022/08/20 02:45:42;;;;;;;6.40;3.45;;;28.40;93.50;;;;;;5069475;28;20046;-72
2022/08/20 02:48:19;;;;;;;6.18;3.30;;;28.40;93.60;;;;;;5067791;28;20044;-72
2022/08/20 02:50:50;;;;;;;5.78;3.13;;;28.40;93.60;;;;;;5069589;28;20127;-72
2022/08/20 02:53:18;;;;;;;6.55;2.95;;;28.30;93.60;;;;;;5069501;28;20133;-72
2022/08/20 02:55:46;;;;;;;11.55;3.83;;;28.40;93.50;;;;;;5069668;28;20051;-72
2022/08/20 02:58:13;;;;;;;6.78;3.25;;;28.40;93.50;;;;;;5069649;28;20495;-72
2022/08/20 03:00:41;;;;;;;6.18;2.65;;;28.40;93.50;;;;;;5067013;28;20051;-72
2022/08/20 03:03:11;;;;;;;4.97;2.40;;;28.40;93.40;;;;;;5068090;28;20060;-72
2022/08/20 03:05:41;;;;;;;5.68;2.70;;;28.40;93.40;;;;;;5049324;28;20063;-72
2022/08/20 03:08:11;;;;;;;6.45;2.80;;;28.40;93.30;;;;;;5063687;28;20056;-72
2022/08/20 03:10:40;;;;;;;4.65;3.10;;;28.40;93.20;;;;;;5102987;28;20037;-72
2022/08/20 03:13:11;;;;;;;7.82;2.83;;;28.40;93.20;;;;;;5041540;28;20053;-72
2022/08/20 03:15:45;;;;;;;12.43;2.63;;;28.30;93.20;;;;;;5065673;28;20453;-72
2022/08/20 03:18:13;;;;;;;6.03;2.60;;;28.40;93.10;;;;;;5066398;28;20041;-72
2022/08/20 03:20:41;;;;;;;3.78;2.40;;;28.30;93.00;;;;;;5050466;28;20052;-72
2022/08/20 03:23:09;;;;;;;4.80;2.38;;;28.30;93.00;;;;;;5066050;28;20151;-72
2022/08/20 03:25:37;;;;;;;6.43;3.05;;;28.30;93.00;;;;;;5082664;28;20080;-72
2022/08/20 03:28:05;;;;;;;4.65;2.53;;;28.30;92.90;;;;;;5050356;28;20043;-72
2022/08/20 03:30:33;;;;;;;6.07;2.63;;;28.30;92.90;;;;;;5065843;28;20128;-72
2022/08/20 03:33:01;;;;;;;4.95;2.50;;;28.30;92.90;;;;;;5065925;28;20541;-72
2022/08/20 03:35:30;;;;;;;12.90;2.92;;;28.30;92.70;;;;;;5050230;28;20045;-72
2022/08/20 03:37:57;;;;;;;7.50;2.42;;;28.20;92.70;;;;;;5049246;28;20509;-72
2022/08/20 03:40:31;;;;;;;3.95;2.50;;;28.20;92.60;;;;;;5050483;28;20186;-72
2022/08/20 03:42:59;;;;;;;5.57;2.90;;;28.20;92.40;;;;;;5049292;28;20768;-72
2022/08/20 03:45:28;;;;;;;5.60;2.53;;;28.10;92.40;;;;;;5050176;28;20049;-72
2022/08/20 03:47:56;;;;;;;4.68;2.58;;;28.10;92.40;;;;;;5050376;28;20460;-72
2022/08/20 03:50:28;;;;;;;5.53;2.53;;;28.10;92.40;;;;;;5065763;28;20076;-72
2022/08/20 03:52:58;;;;;;;5.05;2.70;;;28.10;92.30;;;;;;5051324;28;20051;-72
2022/08/20 03:55:28;;;;;;;6.15;2.03;;;28.10;92.20;;;;;;5053111;28;20041;-72
2022/08/20 03:57:59;;;;;;;4.53;2.40;;;28.10;92.40;;;;;;5054370;28;20041;-72
2022/08/20 04:00:34;;;;;;;6.63;2.50;;;28.00;92.30;;;;;;5054300;28;20698;-72
2022/08/20 04:03:02;;;;;;;4.70;2.60;;;28.00;92.30;;;;;;5054252;28;20041;-72
2022/08/20 04:05:30;;;;;;;4.53;2.70;;;28.00;92.60;;;;;;5059973;28;20080;-72
2022/08/20 04:08:00;;;;;;;5.68;2.78;;;28.00;92.30;;;;;;5072964;28;20048;-73
2022/08/20 04:10:28;;;;;;;4.90;2.80;;;27.90;92.30;;;;;;5072875;28;20041;-73
2022/08/20 04:12:56;;;;;;;6.50;2.80;;;28.00;92.40;;;;;;5056032;28;20094;-73
2022/08/20 04:15:23;;;;;;;5.55;3.30;;;28.00;92.30;;;;;;5073621;28;20434;-74
2022/08/20 04:17:52;;;;;;;8.32;2.50;;;27.90;92.20;;;;;;5074033;28;20507;-74
2022/08/20 04:20:22;;;;;;;4.97;2.47;;;27.90;92.30;;;;;;5073765;28;20064;-74
2022/08/20 04:22:52;;;;;;;6.85;2.55;;;27.90;92.30;;;;;;5072489;28;20032;-74
2022/08/20 04:25:20;;;;;;;5.53;3.42;;;27.90;92.30;;;;;;5105905;28;20055;-73
2022/08/20 04:27:51;;;;;;;9.10;3.30;;;27.90;92.60;;;;;;5072443;28;20047;-71
2022/08/20 04:30:22;;;;;;;4.95;2.22;;;27.90;92.50;;;;;;5073586;28;20076;-72
2022/08/20 04:32:50;;;;;;;4.93;2.72;;;28.00;92.40;;;;;;5106242;28;20055;-72
2022/08/20 04:35:18;;;;;;;8.80;2.83;;;28.00;92.30;;;;;;5073123;28;20059;-72
2022/08/20 04:37:46;;;;;;;4.15;2.50;;;28.00;92.30;;;;;;5073523;28;20078;-72
2022/08/20 04:43:04;;;;;;;7.35;2.65;;;28.00;92.50;;;;;;5072550;28;20190;-72
2022/08/20 04:45:35;;;;;;;5.35;2.58;;;27.90;92.60;;;;;;5089055;28;20147;-72
2022/08/20 04:48:04;;;;;;;4.68;2.30;;;27.90;92.70;;;;;;5073374;28;20045;-72
2022/08/20 04:50:37;;;;;;;5.53;2.65;;;27.90;92.70;;;;;;5088655;28;20051;-72
2022/08/20 04:53:08;;;;;;;5.93;2.70;;;28.00;92.80;;;;;;5073414;28;20064;-72
2022/08/20 04:55:40;;;;;;;6.10;3.55;;;28.00;92.90;;;;;;5055877;28;20087;-72
2022/08/20 04:58:22;;;;;;;7.95;2.78;;;28.00;92.90;;;;;;5073419;28;20060;-72
2022/08/20 05:00:52;;;;;;;6.60;2.88;;;28.10;92.80;;;;;;5069945;28;20044;-72
2022/08/20 05:03:20;;;;;;;11.00;3.40;;;28.20;92.80;;;;;;5104517;28;20483;-72
2022/08/20 05:05:49;;;;;;;7.60;2.60;;;28.30;92.70;;;;;;5071589;28;20037;-72
2022/08/20 05:08:19;;;;;;;4.95;2.38;;;28.40;92.70;;;;;;5073025;28;20045;-73
2022/08/20 05:10:46;;;;;;;6.45;3.17;;;28.50;92.60;;;;;;5071715;28;20048;-72
2022/08/20 05:13:15;;;;;;;3.30;2.40;;;28.60;92.50;;;;;;5071357;28;20048;-72
2022/08/20 05:15:44;;;;;;;4.53;2.67;;;28.70;92.40;;;;;;5055267;28;20070;-72
2022/08/20 05:18:12;;;;;;;5.20;2.47;;;28.90;92.40;;;;;;5071744;28;20049;-72
2022/08/20 05:20:41;;;;;;;7.97;2.75;;;29.00;92.30;;;;;;5072656;28;20052;-72
2022/08/20 05:23:11;;;;;;;7.65;2.72;;;29.00;92.40;;;;;;5071405;28;20176;-72
2022/08/20 05:25:40;;;;;;;5.75;2.90;;;29.00;92.10;;;;;;5072456;28;20044;-72
2022/08/20 05:28:20;;;;;;;7.40;2.60;;;29.00;92.30;;;;;;5071007;28;20041;-72
2022/08/20 05:30:49;;;;;;;5.55;2.75;;;28.90;92.40;;;;;;5071184;28;20695;-72
2022/08/20 05:33:19;;;;;;;10.38;2.70;;;28.90;92.60;;;;;;5071013;28;20131;-73
2022/08/20 05:35:51;;;;;;;6.82;2.90;;;28.80;92.70;;;;;;5071399;28;20095;-73
2022/08/20 05:38:23;;;;;;;5.85;2.25;;;28.70;92.80;;;;;;5072390;28;20131;-72
2022/08/20 05:40:51;;;;;;;5.80;2.63;;;28.70;92.90;;;;;;5072257;28;20479;-73
2022/08/20 05:43:19;;;;;;;6.47;2.72;;;28.70;93.00;;;;;;5070536;28;20041;-73
2022/08/20 05:45:51;;;;;;;6.93;2.83;;;28.60;93.00;;;;;;5072287;28;20101;-73
2022/08/20 05:48:24;;;;;;;8.03;3.03;;;28.90;93.10;;;;;;5072262;28;20171;-73
2022/08/20 05:50:53;;;;;;;7.28;2.83;;;29.00;92.90;;;;;;5072032;28;20295;-73
2022/08/20 05:53:22;;;;;;;8.25;3.65;;;29.20;93.00;;;;;;5070077;28;20044;-73
2022/08/20 05:55:50;;;;;;;5.15;2.83;;;29.40;92.60;;;;;;5070725;28;20048;-73
2022/08/20 05:58:31;;;;;;;7.03;3.17;;;29.60;92.40;;;;;;5070661;28;20048;-72
2022/08/20 06:00:59;;;;;;;5.88;2.65;;;29.80;92.30;;;;;;5072048;28;20379;-73
2022/08/20 06:06:12;;;;;;;;;;;30.20;92.10;;;;;;5072293;28;20132;-73
2022/08/20 06:08:40;;;;;;;6.35;3.08;;;30.40;92.00;;;;;;5072030;28;20290;-73
2022/08/20 06:11:07;;;;;;;7.63;3.20;;;30.50;91.80;;;;;;5071589;28;20048;-73
2022/08/20 06:13:35;;;;;;;9.68;3.72;;;30.70;91.70;;;;;;5070537;28;20044;-72
2022/08/20 06:16:03;;;;;;;8.40;3.22;;;30.80;91.50;;;;;;5087298;28;20052;-73
2022/08/20 06:18:31;;;;;;;6.03;2.85;;;30.90;91.40;;;;;;5071629;28;20040;-73
2022/08/20 06:20:59;;;;;;;4.85;3.05;;;31.10;91.20;;;;;;5071376;28;20083;-72
2022/08/20 06:23:26;;;;;;;9.75;3.25;;;31.20;91.10;;;;;;5071239;28;20080;-73
2022/08/20 06:25:54;;;;;;;5.97;3.00;;;31.40;91.00;;;;;;5070366;28;20156;-72
2022/08/20 06:28:22;;;;;;;7.35;3.15;;;31.50;90.90;;;;;;5070031;28;20086;-73
2022/08/20 06:30:49;;;;;;;6.38;3.00;;;31.60;90.80;;;;;;5070143;28;20045;-73
2022/08/20 06:33:17;;;;;;;6.90;2.90;;;31.80;90.70;;;;;;5053232;28;20477;-73
2022/08/20 06:35:45;;;;;;;5.75;3.92;;;32.00;90.50;;;;;;5104232;28;20051;-73
2022/08/20 06:38:13;;;;;;;7.60;2.83;;;32.10;90.40;;;;;;5071422;28;20040;-73
2022/08/20 06:40:41;;;;;;;10.02;3.88;;;32.20;90.30;;;;;;5053340;28;20044;-73
2022/08/20 06:43:09;;;;;;;6.40;2.72;;;32.20;90.30;;;;;;5101014;28;20079;-73
2022/08/20 06:45:37;;;;;;;5.70;3.10;;;32.20;90.40;;;;;;5069864;28;20052;-73
2022/08/20 06:48:09;;;;;;;13.95;2.78;;;32.20;90.40;;;;;;5071085;28;20040;-73
2022/08/20 06:50:41;;;;;;;7.30;2.85;;;32.20;90.60;;;;;;5070492;28;20052;-73
2022/08/20 06:53:13;;;;;;;;;;;32.10;90.70;;;;;;5070407;28;20047;-73
2022/08/20 06:55:45;;;;;;;10.27;3.40;;;32.20;90.80;;;;;;5069826;28;20400;-73
2022/08/20 06:58:13;;;;;;;8.88;3.08;;;32.20;90.70;;;;;;5071163;28;20033;-73
2022/08/20 07:00:42;;;;;;;8.32;3.33;;;32.30;90.70;;;;;;5086288;28;20044;-72
2022/08/20 07:03:12;;;;;;;11.48;4.18;;;32.40;90.70;;;;;;5070929;28;20040;-73
2022/08/20 07:05:43;;;;;;;6.80;2.65;;;32.50;90.70;;;;;;5069701;28;20068;-73
2022/08/20 07:08:14;;;;;;;5.80;3.33;;;32.70;90.50;;;;;;5069803;28;20044;-73
2022/08/20 07:10:42;;;;;;;8.82;3.08;;;32.70;90.40;;;;;;5070855;28;20087;-73
2022/08/20 07:13:15;;;;;;;6.28;3.40;;;32.80;90.30;;;;;;5086194;28;20048;-74
2022/08/20 07:15:43;;;;;;;9.95;4.40;;;33.00;90.30;;;;;;5053182;28;20517;-73
2022/08/20 07:18:12;;;;;;;6.68;2.58;;;33.10;90.10;;;;;;5103277;28;20486;-74
2022/08/20 07:20:41;;;;;;;8.82;2.60;;;33.10;90.00;;;;;;5069540;28;20048;-73
2022/08/20 07:23:10;;;;;;;5.55;2.70;;;33.20;90.00;;;;;;5070420;28;20048;-73
2022/08/20 07:25:43;;;;;;;10.27;3.72;;;33.20;90.00;;;;;;5069511;28;20139;-73
2022/08/20 07:28:16;;;;;;;7.07;2.72;;;33.30;89.50;;;;;;5070339;28;20386;-73
2022/08/20 07:33:31;;;;;;;7.47;3.45;;;33.40;89.20;;;;;;5070556;28;20048;-73
2022/08/20 07:36:02;;;;;;;8.57;3.10;;;33.50;88.70;;;;;;5083924;28;20084;-74
2022/08/20 07:38:31;;;;;;;6.38;3.17;;;33.60;88.50;;;;;;5069222;28;20098;-73
2022/08/20 07:41:12;;;;;;;8.63;3.42;;;33.70;88.50;;;;;;5086053;28;20063;-73
2022/08/20 07:43:42;;;;;;;5.55;2.67;;;33.70;88.20;;;;;;5102673;28;20386;-73
2022/08/20 07:46:10;;;;;;;7.38;3.30;;;33.80;87.90;;;;;;5052278;28;20514;-73
2022/08/20 07:48:40;;;;;;;8.50;3.33;;;33.80;87.60;;;;;;5070563;28;20040;-74
2022/08/20 07:51:09;;;;;;;4.57;3.20;;;33.80;87.70;;;;;;5102943;28;20101;-74
2022/08/20 07:53:39;;;;;;;8.98;3.55;;;33.90;87.90;;;;;;5069551;28;20423;-73
2022/08/20 07:56:12;;;;;;;8.40;3.40;;;34.00;88.00;;;;;;5069160;28;20055;-74
2022/08/20 07:58:43;;;;;;;6.50;2.25;;;34.00;87.20;;;;;;5069327;28;20068;-74
2022/08/20 08:01:11;;;;;;;7.95;2.65;;;34.00;86.80;;;;;;5069127;28;20055;-74
2022/08/20 08:03:39;;;;;;;8.27;3.70;;;34.10;86.40;;;;;;5102736;28;20048;-73
2022/08/20 08:06:08;;;;;;;5.43;2.70;;;34.00;85.30;;;;;;5070296;28;20127;-73
2022/08/20 08:08:37;;;;;;;7.82;2.83;;;34.20;85.40;;;;;;5070432;28;20047;-73
2022/08/20 08:11:07;;;;;;;7.85;3.47;;;34.20;85.60;;;;;;5102951;28;20131;-73
2022/08/20 08:13:39;;;;;;;4.90;2.90;;;34.30;85.70;;;;;;5052489;28;20048;-73
2022/08/20 08:16:08;;;;;;;11.52;2.70;;;34.30;85.50;;;;;;5068994;28;20102;-73
2022/08/20 08:18:48;;;;;;;7.35;2.30;;;34.30;85.00;;;;;;5070199;28;20075;-73
2022/08/20 08:21:17;;;;;;;8.15;2.97;;;34.30;84.90;;;;;;5052362;28;20059;-73
2022/08/20 08:23:45;;;;;;;8.27;2.63;;;34.50;85.00;;;;;;5068970;28;20044;-74
2022/08/20 08:26:14;;;;;;;12.15;2.72;;;34.50;84.40;;;;;;5083583;28;20135;-74
2022/08/20 08:28:45;;;;;;;6.25;3.15;;;34.50;84.10;;;;;;5069840;28;20542;-73
2022/08/20 08:31:13;;;;;;;7.38;2.55;;;34.60;84.20;;;;;;5069910;28;20123;-73
2022/08/20 08:33:42;;;;;;;7.85;4.05;;;34.70;84.60;;;;;;5052346;28;20143;-73
2022/08/20 08:36:14;;;;;;;6.15;2.88;;;34.70;83.30;;;;;;5070159;28;20143;-73
2022/08/20 08:38:44;;;;;;;6.60;3.25;;;34.80;83.60;;;;;;5068976;28;20061;-73
2022/08/20 08:41:14;;;;;;;5.88;2.45;;;34.80;83.50;;;;;;5072235;28;20516;-73
2022/08/20 08:43:45;;;;;;;5.90;2.90;;;34.80;83.40;;;;;;5072770;28;20053;-73
2022/08/20 08:46:16;;;;;;;9.82;3.13;;;34.70;83.00;;;;;;5072235;28;20055;-73
2022/08/20 08:48:46;;;;;;;6.13;2.65;;;34.70;83.10;;;;;;5055729;28;20059;-73
2022/08/20 08:51:25;;;;;;;10.43;2.85;;;34.60;83.30;;;;;;5088914;28;20039;-73
2022/08/20 08:53:55;;;;;;;10.95;2.83;;;34.60;83.10;;;;;;5105625;28;20059;-73
2022/08/20 08:56:26;;;;;;;9.05;3.42;;;34.40;82.70;;;;;;5105711;28;20049;-74
2022/08/20 08:59:03;;;;;;;8.15;2.63;;;34.50;83.20;;;;;;5073544;28;20083;-73
2022/08/20 09:01:34;;;;;;;5.53;2.30;;;34.50;83.00;;;;;;5088339;28;20052;-73
2022/08/20 09:04:04;;;;;;;7.45;2.75;;;34.50;82.60;;;;;;5073060;28;20054;-73
2022/08/20 09:06:32;;;;;;;8.35;2.92;;;34.60;82.50;;;;;;5105646;28;20399;-74
2022/08/20 09:09:03;;;;;;;3.47;2.35;;;34.70;83.00;;;;;;5105221;28;20044;-73
2022/08/20 09:11:45;;;;;;;12.18;3.50;;;34.90;83.50;;;;;;5088485;28;20135;-74
2022/08/20 09:14:13;;;;;;;3.90;2.50;;;34.90;83.40;;;;;;5071706;28;20048;-74
2022/08/20 09:16:40;;;;;;;8.10;2.50;;;34.80;83.40;;;;;;5071774;28;20074;-73
2022/08/20 09:19:08;;;;;;;10.50;3.83;;;34.30;83.80;;;;;;5105239;28;20115;-74
2022/08/20 09:21:36;;;;;;;6.53;2.33;;;34.00;84.70;;;;;;5070871;28;20068;-73
2022/08/20 09:24:03;;;;;;;8.15;2.97;;;33.60;85.30;;;;;;5071644;28;20041;-73
2022/08/20 09:26:31;;;;;;;5.65;2.92;;;33.60;85.40;;;;;;5071284;28;20406;-73
2022/08/20 09:29:00;;;;;;;6.22;2.38;;;33.70;85.10;;;;;;5071458;28;20414;-73
2022/08/20 09:31:27;;;;;;;13.07;3.92;;;33.90;84.50;;;;;;5071348;28;20048;-74
2022/08/20 09:33:55;;;;;;;11.52;3.55;;;34.00;83.70;;;;;;5055105;28;20407;-73
2022/08/20 09:36:22;;;;;;;7.47;4.28;;;33.80;83.70;;;;;;5071539;28;20052;-74
2022/08/20 09:38:50;;;;;;;6.63;3.67;;;33.60;84.40;;;;;;5088100;28;20137;-74
2022/08/20 09:41:18;;;;;;;5.45;2.45;;;33.40;85.30;;;;;;5072309;28;20399;-74
2022/08/20 09:43:45;;;;;;;3.67;2.25;;;33.20;85.30;;;;;;5087921;28;20143;-73
2022/08/20 09:46:13;;;;;;;5.80;2.38;;;33.20;85.10;;;;;;5072320;28;20045;-74
2022/08/20 09:48:40;;;;;;;4.35;2.47;;;33.40;85.20;;;;;;5072737;28;20049;-74
2022/08/20 09:51:08;;;;;;;12.48;3.63;;;33.50;84.90;;;;;;5104751;28;20048;-74
2022/08/20 09:53:36;;;;;;;6.45;2.85;;;33.40;85.10;;;;;;5072434;28;20530;-74
2022/08/20 09:56:03;;;;;;;6.05;2.65;;;33.40;85.40;;;;;;5087700;28;20045;-74
2022/08/20 09:58:48;;;;;;;4.78;2.40;;;33.40;86.20;;;;;;5070863;28;20044;-74
2022/08/20 10:01:18;;;;;;;7.07;2.47;;;33.40;87.10;;;;;;5072285;28;20921;-74
2022/08/20 10:03:47;;;;;;;8.18;3.13;;;33.30;86.80;;;;;;5070857;28;20036;-74
2022/08/20 10:06:18;;;;;;;7.05;2.40;;;33.10;86.80;;;;;;5070810;28;20466;-74
2022/08/20 10:08:47;;;;;;;4.78;2.60;;;32.90;87.30;;;;;;5070903;28;20083;-74
2022/08/20 10:11:15;;;;;;;8.98;3.58;;;32.90;86.80;;;;;;5070387;28;20486;-74
2022/08/20 10:13:43;;;;;;;4.63;2.55;;;32.70;86.80;;;;;;5072023;28;20044;-74
2022/08/20 10:16:10;;;;;;;9.70;3.33;;;32.70;86.50;;;;;;5068786;28;20106;-74
2022/08/20 10:18:38;;;;;;;6.15;2.38;;;32.80;86.90;;;;;;5072042;28;20101;-74
2022/08/20 10:21:10;;;;;;;8.68;2.30;;;32.80;86.60;;;;;;5103787;28;20040;-74
2022/08/20 10:23:38;;;;;;;7.45;2.65;;;33.10;86.50;;;;;;5070496;28;20453;-74
2022/08/20 10:26:10;;;;;;;5.82;2.90;;;33.20;86.10;;;;;;5087391;28;20137;-75
2022/08/20 10:28:39;;;;;;;8.50;2.50;;;33.10;85.80;;;;;;5104242;28;20064;-74
2022/08/20 10:31:08;;;;;;;4.72;2.25;;;33.20;86.20;;;;;;5103883;28;20044;-74
2022/08/20 10:33:37;;;;;;;7.85;2.70;;;33.00;85.90;;;;;;5071426;28;20041;-74
2022/08/20 10:36:16;;;;;;;6.03;2.92;;;32.60;86.40;;;;;;5053696;28;20051;-74
2022/08/20 10:38:44;;;;;;;7.97;3.08;;;32.40;87.10;;;;;;5071308;28;20048;-75
2022/08/20 10:41:12;;;;;;;8.93;2.92;;;32.30;87.80;;;;;;5086811;28;20036;-74
2022/08/20 10:43:39;;;;;;;7.45;2.58;;;32.30;87.60;;;;;;5071666;28;20098;-74
2022/08/20 10:46:07;;;;;;;8.90;3.17;;;32.30;87.50;;;;;;5071147;28;20090;-75
2022/08/20 10:48:35;;;;;;;7.32;2.92;;;32.50;87.90;;;;;;5086812;28;20052;-74
2022/08/20 10:51:03;;;;;;;6.57;2.30;;;32.60;87.40;;;;;;5069627;28;20040;-74
2022/08/20 10:53:31;;;;;;;5.70;2.28;;;32.90;87.30;;;;;;5071016;28;20037;-73
2022/08/20 10:55:59;;;;;;;5.22;2.08;;;32.70;86.80;;;;;;5071114;28;20398;-73
2022/08/20 10:58:27;;;;;;;5.40;2.88;;;32.80;87.40;;;;;;5103751;28;20050;-74
2022/08/20 11:00:55;;;;;;;5.90;2.85;;;32.80;87.50;;;;;;5069651;28;20040;-74
2022/08/20 11:03:22;;;;;;;6.38;2.25;;;32.80;87.60;;;;;;5070066;28;20055;-73
2022/08/20 11:05:50;;;;;;;5.95;2.90;;;32.60;87.50;;;;;;5069514;28;20071;-75
2022/08/20 11:08:18;;;;;;;5.07;2.50;;;32.50;87.70;;;;;;5071173;28;20101;-74
2022/08/20 11:10:45;;;;;;;5.45;3.05;;;32.20;88.50;;;;;;5053424;28;20049;-74
2022/08/20 11:13:13;;;;;;;6.78;2.65;;;32.10;89.00;;;;;;5069517;28;20067;-75
2022/08/20 11:15:42;;;;;;;5.80;2.72;;;31.70;89.80;;;;;;5067870;28;20048;-74
2022/08/20 11:18:11;;;;;;;6.28;2.60;;;31.30;90.60;;;;;;5070684;28;20572;-74
2022/08/20 11:20:39;;;;;;;6.80;2.50;;;31.00;91.20;;;;;;5070776;28;20053;-74
2022/08/20 11:23:07;;;;;;;5.63;2.20;;;30.80;91.40;;;;;;5086461;28;20044;-74
2022/08/20 11:25:34;;;;;;;6.28;2.50;;;30.80;91.50;;;;;;5070873;28;20045;-74
2022/08/20 11:28:03;;;;;;;5.75;2.25;;;30.80;91.40;;;;;;5069263;28;20071;-75
2022/08/20 11:30:34;;;;;;;5.75;3.05;;;31.00;91.30;;;;;;5069505;28;20056;-74
2022/08/20 11:33:02;;;;;;;6.55;2.58;;;31.10;91.20;;;;;;5086085;28;20044;-74
2022/08/20 11:35:32;;;;;;;6.25;2.30;;;31.20;91.10;;;;;;5068827;28;20044;-75
2022/08/20 11:38:16;;;;;;;;;;;31.40;91.10;;;;;;5069884;28;20047;-74
2022/08/20 11:40:45;;;;;;;6.13;2.35;;;31.50;91.10;;;;;;5069354;28;19968;-74
2022/08/20 11:43:13;;;;;;;8.02;2.25;;;31.50;90.90;;;;;;5102633;28;20094;-75
2022/08/20 11:45:48;;;;;;;4.72;2.10;;;31.50;90.50;;;;;;5070542;28;20048;-74
2022/08/20 11:48:16;;;;;;;6.47;2.53;;;31.50;90.40;;;;;;5085980;28;20048;-74
2022/08/20 11:50:45;;;;;;;8.57;2.45;;;31.60;90.60;;;;;;5052723;28;20147;-74
2022/08/20 11:53:13;;;;;;;5.57;3.00;;;31.70;90.40;;;;;;5086461;28;20060;-75
2022/08/20 11:55:41;;;;;;;7.20;2.40;;;31.70;90.70;;;;;;5052573;28;20102;-74
2022/08/20 11:58:09;;;;;;;6.47;3.10;;;31.70;90.80;;;;;;5068433;28;20570;-75
2022/08/20 12:00:36;;;;;;;6.65;2.38;;;31.80;90.80;;;;;;5086273;28;20083;-74
2022/08/20 12:03:05;;;;;;;8.93;2.47;;;31.80;91.00;;;;;;5100874;28;20092;-75
2022/08/20 12:05:33;;;;;;;7.63;2.70;;;31.80;91.20;;;;;;5070353;28;20033;-75
2022/08/20 12:08:01;;;;;;;8.50;2.55;;;31.70;91.10;;;;;;5085451;28;20048;-74
2022/08/20 12:10:30;;;;;;;6.18;2.20;;;31.70;91.40;;;;;;5102377;28;20777;-75
2022/08/20 12:12:58;;;;;;;5.40;2.47;;;31.70;91.50;;;;;;5070829;28;20040;-75
2022/08/20 12:15:26;;;;;;;3.80;2.10;;;31.90;91.00;;;;;;5072671;28;20659;-74
2022/08/20 12:17:54;;;;;;;24.88;2.97;;;31.80;91.00;;;;;;5074349;28;20055;-75
2022/08/20 12:20:23;;;;;;;5.63;2.90;;;31.80;90.50;;;;;;5072738;28;20040;-74
2022/08/20 12:22:52;;;;;;;9.23;3.03;;;31.80;90.10;;;;;;5056271;28;20090;-74
2022/08/20 12:25:20;;;;;;;8.60;2.30;;;31.60;90.50;;;;;;5089073;28;20048;-75
2022/08/20 12:27:47;;;;;;;8.50;2.40;;;31.40;91.40;;;;;;5072869;28;20040;-75
2022/08/20 12:30:18;;;;;;;5.68;2.47;;;31.50;91.60;;;;;;5073900;28;20086;-74
2022/08/20 12:32:49;;;;;;;6.57;2.20;;;31.60;91.80;;;;;;5072544;28;20087;-75
2022/08/20 12:35:18;;;;;;;5.38;2.15;;;31.60;91.80;;;;;;5072326;28;20124;-75
2022/08/20 12:37:45;;;;;;;5.63;2.22;;;31.70;91.90;;;;;;5072323;28;20383;-75
2022/08/20 12:40:19;;;;;;;4.95;2.67;;;31.80;91.80;;;;;;5106215;28;20048;-75
2022/08/20 12:42:47;;;;;;;5.15;1.90;;;31.70;91.90;;;;;;5055668;28;20541;-76
2022/08/20 12:45:16;;;;;;;8.98;2.42;;;31.60;91.80;;;;;;5073351;28;20056;-75
2022/08/20 12:47:46;;;;;;;11.38;2.40;;;31.70;92.30;;;;;;5073340;28;20050;-75
2022/08/20 12:50:17;;;;;;;7.63;2.28;;;31.70;92.80;;;;;;5073257;28;20589;-75
2022/08/20 12:52:45;;;;;;;5.85;2.42;;;31.80;93.00;;;;;;5072359;28;20091;-75
2022/08/20 12:55:14;;;;;;;5.50;2.35;;;31.80;92.80;;;;;;5072232;28;20110;-75
2022/08/20 12:57:48;;;;;;;4.88;2.42;;;31.80;93.10;;;;;;5069989;28;20062;-74
2022/08/20 13:00:32;;;;;;;5.82;2.65;;;31.70;93.20;;;;;;5072034;28;20079;-75
2022/08/20 13:03:02;;;;;;;6.53;2.45;;;31.70;93.30;;;;;;5105390;28;20045;-75
2022/08/20 13:05:31;;;;;;;6.22;2.40;;;31.60;93.30;;;;;;5073073;28;20040;-75
2022/08/20 13:07:59;;;;;;;10.20;2.67;;;31.60;93.00;;;;;;5088412;28;20452;-74
2022/08/20 13:10:30;;;;;;;7.78;2.80;;;31.50;93.30;;;;;;5073116;28;20059;-75